Deva — A8OK3 — position and weather

sailwx.info

Track history (hours):
 
Tides and Currents Weather Stations Pressure Air Temp Water Temp Dewpoint Dewpoint Depression Visibility Wind Speed Wind Dir Waves Ship Positions

Deva

Last reported at 2017-May-28 16:30 UTC. Time now 2017-May-28 16:31 UTC.
Position S 07°01' E 112°40'.

Length 259 m; draft 9.2 m.

Type: Ship (hazmat cat A). MMSI: 636013644.

Date/timePositionNaut miles runAvg speedWind from/ knotsBaromVisibWave heightAir tempDewpointWater temp
2017-May-28 16:30S 07°01' E 112°40'713.3
2017-May-28 15:59S 07°08' E 112°39'5 9.7
2017-May-28 15:30S 07°12' E 112°42'0 0.3
2017-May-28 14:57S 07°12' E 112°42'0 0.0
2017-May-28 14:00S 07°12' E 112°42'0 0.0
2017-May-28 13:27S 07°12' E 112°42'0 0.0
2017-May-28 12:54S 07°12' E 112°42'0 0.0
2017-May-28 10:53S 07°12' E 112°42'0 0.0
2017-May-28 10:27S 07°12' E 112°42'0 0.0
2017-May-28 09:54S 07°12' E 112°42'0 0.0
2017-May-28 09:30S 07°12' E 112°42'0 0.0
2017-May-28 08:51S 07°12' E 112°42'0 0.0
2017-May-28 08:30S 07°12' E 112°42'0 0.0
2017-May-28 08:00S 07°12' E 112°42'0 0.0
2017-May-28 07:24S 07°12' E 112°42'0 0.0
2017-May-28 06:54S 07°12' E 112°42'0 0.0
2017-May-28 06:30S 07°12' E 112°42'0 0.0
2017-May-28 05:54S 07°12' E 112°42'0 0.0
2017-May-28 05:30S 07°12' E 112°42'0 0.0
2017-May-28 04:57S 07°12' E 112°42'0 0.0
2017-May-28 04:24S 07°12' E 112°42'0 0.0
2017-May-28 03:42S 07°12' E 112°42'0 0.0
2017-May-28 03:27S 07°12' E 112°42'0 0.0
2017-May-28 03:00S 07°12' E 112°42'0 0.0
2017-May-28 02:18S 07°12' E 112°42'0 0.0
2017-May-28 01:24S 07°12' E 112°42'0 0.0
2017-May-28 00:59S 07°12' E 112°42'0 0.0
2017-May-28 00:23S 07°12' E 112°42'0 0.0
2017-May-27 23:35S 07°12' E 112°42'0 0.0
2017-May-27 23:23S 07°12' E 112°42'0 0.0
2017-May-27 22:59S 07°12' E 112°42'0 0.0
2017-May-27 22:08S 07°12' E 112°42'0 0.0
2017-May-27 21:50S 07°12' E 112°42'0 0.0
2017-May-27 21:26S 07°12' E 112°42'0 0.0
2017-May-27 20:23S 07°12' E 112°42'0 0.0
2017-May-27 19:53S 07°12' E 112°42'0 0.0
2017-May-27 19:29S 07°12' E 112°42'0 0.0
2017-May-27 18:59S 07°12' E 112°42'0 0.0
2017-May-27 18:26S 07°12' E 112°42'0 0.0
2017-May-27 17:54S 07°12' E 112°42'1 2.2
2017-May-27 17:30S 07°11' E 112°42'4 8.4
2017-May-27 17:00S 07°08' E 112°39'713.8
2017-May-27 16:29S 07°00' E 112°41'713.3
2017-May-27 15:59S 06°54' E 112°44'4 9.2
2017-May-27 15:31S 06°50' E 112°45'0 0.4
2017-May-27 15:00S 06°50' E 112°45'3 2.4
2017-May-27 13:53S 06°48' E 112°46'0 0.1
2017-May-27 13:17S 06°48' E 112°46'0 0.4
2017-May-27 13:00S 06°48' E 112°46'0 0.9
2017-May-27 12:29S 06°48' E 112°47'0 0.0
2017-May-27 11:58S 06°48' E 112°47'0 1.0
2017-May-27 11:29S 06°48' E 112°46'1 2.0
2017-May-27 11:00S 06°48' E 112°45'5 9.9
2017-May-27 10:30S 06°47' E 112°40'918.7
2017-May-27 10:00S 06°43' E 112°32'  
2017-May-20 08:33N 22°19' E 114°07'0 9.1
2017-May-20 08:30N 22°20' E 114°07'  
Track history (hours):
 
Tides and Currents Weather Stations Pressure Air Temp Water Temp Dewpoint Dewpoint Depression Visibility Wind Speed Wind Dir Waves Ship Positions

Deva

Last reported at 2017-May-28 16:30 UTC. Time now 2017-May-28 16:31 UTC.
Position S 07°01' E 112°40'.

Length 259 m; draft 9.2 m.

Type: Ship (hazmat cat A). MMSI: 636013644.

Date/timePositionNaut miles runAvg speedWind from/ knotsBaromVisibWave heightAir tempDewpointWater temp
2017-May-28 16:30S 07°01' E 112°40'713.3
2017-May-28 15:59S 07°08' E 112°39'5 9.7
2017-May-28 15:30S 07°12' E 112°42'0 0.3
2017-May-28 14:57S 07°12' E 112°42'0 0.0
2017-May-28 14:00S 07°12' E 112°42'0 0.0
2017-May-28 13:27S 07°12' E 112°42'0 0.0
2017-May-28 12:54S 07°12' E 112°42'0 0.0
2017-May-28 10:53S 07°12' E 112°42'0 0.0
2017-May-28 10:27S 07°12' E 112°42'0 0.0
2017-May-28 09:54S 07°12' E 112°42'0 0.0
2017-May-28 09:30S 07°12' E 112°42'0 0.0
2017-May-28 08:51S 07°12' E 112°42'0 0.0
2017-May-28 08:30S 07°12' E 112°42'0 0.0
2017-May-28 08:00S 07°12' E 112°42'0 0.0
2017-May-28 07:24S 07°12' E 112°42'0 0.0
2017-May-28 06:54S 07°12' E 112°42'0 0.0
2017-May-28 06:30S 07°12' E 112°42'0 0.0
2017-May-28 05:54S 07°12' E 112°42'0 0.0
2017-May-28 05:30S 07°12' E 112°42'0 0.0
2017-May-28 04:57S 07°12' E 112°42'0 0.0
2017-May-28 04:24S 07°12' E 112°42'0 0.0
2017-May-28 03:42S 07°12' E 112°42'0 0.0
2017-May-28 03:27S 07°12' E 112°42'0 0.0
2017-May-28 03:00S 07°12' E 112°42'0 0.0
2017-May-28 02:18S 07°12' E 112°42'0 0.0
2017-May-28 01:24S 07°12' E 112°42'0 0.0
2017-May-28 00:59S 07°12' E 112°42'0 0.0
2017-May-28 00:23S 07°12' E 112°42'0 0.0
2017-May-27 23:35S 07°12' E 112°42'0 0.0
2017-May-27 23:23S 07°12' E 112°42'0 0.0
2017-May-27 22:59S 07°12' E 112°42'0 0.0
2017-May-27 22:08S 07°12' E 112°42'0 0.0
2017-May-27 21:50S 07°12' E 112°42'0 0.0
2017-May-27 21:26S 07°12' E 112°42'0 0.0
2017-May-27 20:23S 07°12' E 112°42'0 0.0
2017-May-27 19:53S 07°12' E 112°42'0 0.0
2017-May-27 19:29S 07°12' E 112°42'0 0.0
2017-May-27 18:59S 07°12' E 112°42'0 0.0
2017-May-27 18:26S 07°12' E 112°42'0 0.0
2017-May-27 17:54S 07°12' E 112°42'1 2.2
2017-May-27 17:30S 07°11' E 112°42'4 8.4
2017-May-27 17:00S 07°08' E 112°39'713.8
2017-May-27 16:29S 07°00' E 112°41'713.3
2017-May-27 15:59S 06°54' E 112°44'4 9.2
2017-May-27 15:31S 06°50' E 112°45'0 0.4
2017-May-27 15:00S 06°50' E 112°45'3 2.4
2017-May-27 13:53S 06°48' E 112°46'0 0.1
2017-May-27 13:17S 06°48' E 112°46'0 0.4
2017-May-27 13:00S 06°48' E 112°46'0 0.9
2017-May-27 12:29S 06°48' E 112°47'0 0.0
2017-May-27 11:58S 06°48' E 112°47'0 1.0
2017-May-27 11:29S 06°48' E 112°46'1 2.0
2017-May-27 11:00S 06°48' E 112°45'5 9.9
2017-May-27 10:30S 06°47' E 112°40'918.7
2017-May-27 10:00S 06°43' E 112°32'  
2017-May-20 08:33N 22°19' E 114°07'0 9.1
2017-May-20 08:30N 22°20' E 114°07'  

Dump ship's entire track history